sensor_id;sensor_type;location;lat;lon;timestamp;pressure;altitude;pressure_sealevel;temperature;humidity
22018;BME280;11173;51.050;7.108;2022-08-23T00:01:54;99304.28;;;19.32;45.18
22018;BME280;11173;51.050;7.108;2022-08-23T00:06:55;99313.16;;;19.25;45.92
22018;BME280;11173;51.050;7.108;2022-08-23T00:17:03;99295.25;;;19.13;47.53
22018;BME280;11173;51.050;7.108;2022-08-23T00:22:05;99304.38;;;19.08;48.15
22018;BME280;11173;51.050;7.108;2022-08-23T00:27:14;99305.09;;;19.03;49.38
22018;BME280;11173;51.050;7.108;2022-08-23T00:32:19;99294.84;;;18.91;49.24
22018;BME280;11173;51.050;7.108;2022-08-23T00:37:21;99289.22;;;18.76;49.82
22018;BME280;11173;51.050;7.108;2022-08-23T00:42:27;99290.75;;;18.62;50.39
22018;BME280;11173;51.050;7.108;2022-08-23T00:47:49;99288.44;;;18.45;50.29
22018;BME280;11173;51.050;7.108;2022-08-23T00:53:23;99287.88;;;18.32;50.80
22018;BME280;11173;51.050;7.108;2022-08-23T00:58:25;99274.25;;;18.16;49.79
22018;BME280;11173;51.050;7.108;2022-08-23T01:03:28;99281.81;;;18.09;49.45
22018;BME280;11173;51.050;7.108;2022-08-23T01:08:32;99288.38;;;18.06;49.18
22018;BME280;11173;51.050;7.108;2022-08-23T01:14:15;99294.41;;;17.99;50.71
22018;BME280;11173;51.050;7.108;2022-08-23T01:19:52;99291.78;;;17.96;50.27
22018;BME280;11173;51.050;7.108;2022-08-23T01:24:55;99296.81;;;17.92;49.30
22018;BME280;11173;51.050;7.108;2022-08-23T01:29:56;99301.06;;;17.87;49.03
22018;BME280;11173;51.050;7.108;2022-08-23T01:34:56;99300.56;;;17.88;48.32
22018;BME280;11173;51.050;7.108;2022-08-23T01:39:56;99302.16;;;17.89;48.26
22018;BME280;11173;51.050;7.108;2022-08-23T01:44:57;99300.41;;;17.92;48.11
22018;BME280;11173;51.050;7.108;2022-08-23T01:49:57;99305.22;;;18.01;47.67
22018;BME280;11173;51.050;7.108;2022-08-23T01:54:58;99308.34;;;18.03;47.75
22018;BME280;11173;51.050;7.108;2022-08-23T02:00:03;99309.88;;;18.04;47.24
22018;BME280;11173;51.050;7.108;2022-08-23T02:05:05;99315.03;;;18.05;46.63
22018;BME280;11173;51.050;7.108;2022-08-23T02:10:06;99309.56;;;18.02;46.71
22018;BME280;11173;51.050;7.108;2022-08-23T02:15:07;99310.34;;;18.02;46.49
22018;BME280;11173;51.050;7.108;2022-08-23T02:20:08;99315.97;;;18.02;46.59
22018;BME280;11173;51.050;7.108;2022-08-23T02:25:09;99317.72;;;18.00;46.39
22018;BME280;11173;51.050;7.108;2022-08-23T02:30:10;99315.09;;;17.96;46.89
22018;BME280;11173;51.050;7.108;2022-08-23T02:35:11;99319.81;;;17.90;46.94
22018;BME280;11173;51.050;7.108;2022-08-23T02:40:11;99311.06;;;17.88;46.54
22018;BME280;11173;51.050;7.108;2022-08-23T02:45:12;99312.41;;;17.78;46.66
22018;BME280;11173;51.050;7.108;2022-08-23T02:50:12;99325.22;;;17.79;46.76
22018;BME280;11173;51.050;7.108;2022-08-23T02:55:13;99331.22;;;17.72;46.45
22018;BME280;11173;51.050;7.108;2022-08-23T03:00:15;99327.78;;;17.67;46.81
22018;BME280;11173;51.050;7.108;2022-08-23T03:05:16;99328.91;;;17.61;46.72
22018;BME280;11173;51.050;7.108;2022-08-23T03:10:16;99335.19;;;17.56;46.98
22018;BME280;11173;51.050;7.108;2022-08-23T03:15:17;99336.31;;;17.49;47.17
22018;BME280;11173;51.050;7.108;2022-08-23T03:20:17;99336.94;;;17.44;47.45
22018;BME280;11173;51.050;7.108;2022-08-23T03:25:18;99328.22;;;17.33;47.27
22018;BME280;11173;51.050;7.108;2022-08-23T03:30:18;99330.44;;;17.28;48.08
22018;BME280;11173;51.050;7.108;2022-08-23T03:35:19;99333.41;;;17.25;47.89
22018;BME280;11173;51.050;7.108;2022-08-23T03:40:19;99334.53;;;17.18;47.92
22018;BME280;11173;51.050;7.108;2022-08-23T03:45:21;99338.78;;;17.14;47.79
22018;BME280;11173;51.050;7.108;2022-08-23T03:50:23;99343.50;;;17.07;47.94
22018;BME280;11173;51.050;7.108;2022-08-23T03:55:23;99355.38;;;17.02;47.91
22018;BME280;11173;51.050;7.108;2022-08-23T04:00:24;99352.25;;;17.00;48.17
22018;BME280;11173;51.050;7.108;2022-08-23T04:05:25;99361.16;;;16.99;48.04
22018;BME280;11173;51.050;7.108;2022-08-23T04:10:25;99359.94;;;16.90;48.71
22018;BME280;11173;51.050;7.108;2022-08-23T04:15:26;99376.34;;;16.92;48.66
22018;BME280;11173;51.050;7.108;2022-08-23T04:20:27;99376.19;;;16.86;48.46
22018;BME280;11173;51.050;7.108;2022-08-23T04:25:28;99381.19;;;16.82;48.27
22018;BME280;11173;51.050;7.108;2022-08-23T04:30:28;99386.22;;;16.78;48.37
22018;BME280;11173;51.050;7.108;2022-08-23T04:35:29;99389.97;;;16.75;48.53
22018;BME280;11173;51.050;7.108;2022-08-23T04:40:29;99389.78;;;16.69;48.61
22018;BME280;11173;51.050;7.108;2022-08-23T04:45:48;99399.00;;;16.70;49.26
22018;BME280;11173;51.050;7.108;2022-08-23T04:50:49;99401.81;;;16.70;48.93
22018;BME280;11173;51.050;7.108;2022-08-23T04:55:50;99407.63;;;16.76;48.81
22018;BME280;11173;51.050;7.108;2022-08-23T05:00:51;99411.06;;;16.80;48.65
22018;BME280;11173;51.050;7.108;2022-08-23T05:05:53;99418.53;;;16.83;48.61
22018;BME280;11173;51.050;7.108;2022-08-23T05:10:53;99425.59;;;16.87;48.62
22018;BME280;11173;51.050;7.108;2022-08-23T05:15:54;99429.03;;;16.92;48.37
22018;BME280;11173;51.050;7.108;2022-08-23T05:20:54;99424.50;;;16.94;48.71
22018;BME280;11173;51.050;7.108;2022-08-23T05:25:55;99430.59;;;17.02;48.08
22018;BME280;11173;51.050;7.108;2022-08-23T05:30:59;99441.03;;;17.10;48.49
22018;BME280;11173;51.050;7.108;2022-08-23T05:36:02;99443.69;;;17.23;48.42
22018;BME280;11173;51.050;7.108;2022-08-23T05:41:04;99452.06;;;17.51;48.29
22018;BME280;11173;51.050;7.108;2022-08-23T05:46:13;99448.94;;;18.01;47.86
22018;BME280;11173;51.050;7.108;2022-08-23T05:51:26;99452.84;;;18.61;47.06
22018;BME280;11173;51.050;7.108;2022-08-23T05:56:33;99460.81;;;19.16;46.69
22018;BME280;11173;51.050;7.108;2022-08-23T06:01:34;99460.19;;;19.66;46.03
22018;BME280;11173;51.050;7.108;2022-08-23T06:06:35;99474.00;;;20.09;45.41
22018;BME280;11173;51.050;7.108;2022-08-23T06:11:36;99465.78;;;20.46;44.40
22018;BME280;11173;51.050;7.108;2022-08-23T06:16:43;99475.06;;;20.88;44.75
22018;BME280;11173;51.050;7.108;2022-08-23T06:21:44;99481.94;;;21.28;44.73
22018;BME280;11173;51.050;7.108;2022-08-23T06:26:45;99482.03;;;21.59;44.50
22018;BME280;11173;51.050;7.108;2022-08-23T06:31:47;99480.94;;;21.83;43.88
22018;BME280;11173;51.050;7.108;2022-08-23T06:36:55;99476.53;;;21.82;43.14
22018;BME280;11173;51.050;7.108;2022-08-23T06:42:00;99480.56;;;21.70;43.04
22018;BME280;11173;51.050;7.108;2022-08-23T06:47:02;99478.38;;;21.53;42.81
22018;BME280;11173;51.050;7.108;2022-08-23T06:52:03;99463.63;;;21.23;43.18
22018;BME280;11173;51.050;7.108;2022-08-23T06:57:03;99493.50;;;21.24;43.35
22018;BME280;11173;51.050;7.108;2022-08-23T07:02:06;99485.88;;;21.10;43.83
22018;BME280;11173;51.050;7.108;2022-08-23T07:07:08;99501.81;;;21.07;43.35
22018;BME280;11173;51.050;7.108;2022-08-23T07:12:08;99500.97;;;21.01;43.52
22018;BME280;11173;51.050;7.108;2022-08-23T07:17:10;99506.63;;;21.01;43.42
22018;BME280;11173;51.050;7.108;2022-08-23T07:22:11;99514.94;;;21.04;43.48
22018;BME280;11173;51.050;7.108;2022-08-23T07:27:11;99519.78;;;21.04;43.67
22018;BME280;11173;51.050;7.108;2022-08-23T07:32:12;99518.59;;;21.11;43.54
22018;BME280;11173;51.050;7.108;2022-08-23T07:37:12;99526.16;;;21.19;43.58
22018;BME280;11173;51.050;7.108;2022-08-23T07:42:13;99531.88;;;21.25;43.32
22018;BME280;11173;51.050;7.108;2022-08-23T07:47:14;99533.00;;;21.33;43.21
22018;BME280;11173;51.050;7.108;2022-08-23T07:52:14;99536.75;;;21.45;43.40
22018;BME280;11173;51.050;7.108;2022-08-23T07:57:16;99538.44;;;21.57;43.33
22018;BME280;11173;51.050;7.108;2022-08-23T08:02:17;99541.88;;;21.67;43.06
22018;BME280;11173;51.050;7.108;2022-08-23T08:07:17;99531.38;;;21.73;42.98
22018;BME280;11173;51.050;7.108;2022-08-23T08:12:18;99537.91;;;21.85;42.86
22018;BME280;11173;51.050;7.108;2022-08-23T08:17:18;99537.97;;;21.91;42.70
22018;BME280;11173;51.050;7.108;2022-08-23T08:22:19;99530.06;;;22.00;42.95
22018;BME280;11173;51.050;7.108;2022-08-23T08:27:19;99537.09;;;22.11;42.86
22018;BME280;11173;51.050;7.108;2022-08-23T08:32:20;99535.59;;;22.15;42.40
22018;BME280;11173;51.050;7.108;2022-08-23T08:37:21;99533.09;;;22.23;42.52
22018;BME280;11173;51.050;7.108;2022-08-23T08:42:38;99531.06;;;22.29;42.58
22018;BME280;11173;51.050;7.108;2022-08-23T08:47:50;99535.72;;;22.32;41.12
22018;BME280;11173;51.050;7.108;2022-08-23T08:53:14;99534.50;;;22.39;42.69
22018;BME280;11173;51.050;7.108;2022-08-23T08:58:27;99530.13;;;22.43;41.90
22018;BME280;11173;51.050;7.108;2022-08-23T09:03:31;99542.50;;;22.46;42.55
22018;BME280;11173;51.050;7.108;2022-08-23T09:19:04;99537.00;;;22.69;42.08
22018;BME280;11173;51.050;7.108;2022-08-23T09:24:05;99540.38;;;22.73;42.07
22018;BME280;11173;51.050;7.108;2022-08-23T09:29:22;99544.03;;;22.84;42.41
22018;BME280;11173;51.050;7.108;2022-08-23T09:39:32;99536.38;;;23.02;42.14
22018;BME280;11173;51.050;7.108;2022-08-23T09:44:35;99539.28;;;23.13;42.33
22018;BME280;11173;51.050;7.108;2022-08-23T09:49:36;99535.16;;;23.26;42.19
22018;BME280;11173;51.050;7.108;2022-08-23T09:54:39;99524.59;;;23.32;41.85
22018;BME280;11173;51.050;7.108;2022-08-23T09:59:43;99526.19;;;23.55;41.63
22018;BME280;11173;51.050;7.108;2022-08-23T10:04:55;99524.94;;;23.68;41.41
22018;BME280;11173;51.050;7.108;2022-08-23T10:10:34;99528.31;;;23.83;40.90
22018;BME280;11173;51.050;7.108;2022-08-23T10:25:59;99522.38;;;24.15;40.38
22018;BME280;11173;51.050;7.108;2022-08-23T10:31:30;99528.34;;;24.28;40.98
22018;BME280;11173;51.050;7.108;2022-08-23T10:42:17;99524.38;;;24.54;39.85
22018;BME280;11173;51.050;7.108;2022-08-23T10:47:37;99520.75;;;24.65;39.77
22018;BME280;11173;51.050;7.108;2022-08-23T10:53:04;99516.06;;;24.73;39.80
22018;BME280;11173;51.050;7.108;2022-08-23T10:58:07;99513.69;;;24.83;39.17
22018;BME280;11173;51.050;7.108;2022-08-23T11:03:31;99516.25;;;24.92;39.49
22018;BME280;11173;51.050;7.108;2022-08-23T11:08:34;99511.34;;;24.98;39.42
22018;BME280;11173;51.050;7.108;2022-08-23T11:13:36;99511.00;;;25.07;39.78
22018;BME280;11173;51.050;7.108;2022-08-23T11:34:24;99506.09;;;25.49;38.92
22018;BME280;11173;51.050;7.108;2022-08-23T11:39:24;99508.91;;;25.60;38.49
22018;BME280;11173;51.050;7.108;2022-08-23T11:54:53;99508.94;;;25.91;37.62
22018;BME280;11173;51.050;7.108;2022-08-23T12:00:15;99500.81;;;26.00;37.48
22018;BME280;11173;51.050;7.108;2022-08-23T12:16:25;99485.22;;;26.32;34.32
22018;BME280;11173;51.050;7.108;2022-08-23T12:21:08;99466.81;;;26.52;36.79
22018;BME280;11173;51.050;7.108;2022-08-23T12:26:27;99466.38;;;26.67;37.02
22018;BME280;11173;51.050;7.108;2022-08-23T12:31:37;99461.78;;;26.83;35.62
22018;BME280;11173;51.050;7.108;2022-08-23T12:36:52;99458.78;;;26.94;36.00
22018;BME280;11173;51.050;7.108;2022-08-23T12:42:14;99470.50;;;27.09;35.83
22018;BME280;11173;51.050;7.108;2022-08-23T12:47:18;99467.50;;;27.21;35.64
22018;BME280;11173;51.050;7.108;2022-08-23T12:52:24;99467.28;;;27.37;35.10
22018;BME280;11173;51.050;7.108;2022-08-23T12:57:36;99469.78;;;27.60;36.00
22018;BME280;11173;51.050;7.108;2022-08-23T13:02:37;99468.66;;;27.82;35.82
22018;BME280;11173;51.050;7.108;2022-08-23T13:07:38;99461.25;;;28.06;35.84
22018;BME280;11173;51.050;7.108;2022-08-23T13:12:40;99461.78;;;28.31;35.70
22018;BME280;11173;51.050;7.108;2022-08-23T13:17:41;99457.97;;;28.55;34.98
22018;BME280;11173;51.050;7.108;2022-08-23T13:23:00;99462.81;;;28.73;34.45
22018;BME280;11173;51.050;7.108;2022-08-23T13:28:07;99462.13;;;28.81;33.49
22018;BME280;11173;51.050;7.108;2022-08-23T13:33:20;99466.97;;;28.86;33.39
22018;BME280;11173;51.050;7.108;2022-08-23T13:38:24;99466.19;;;28.85;33.83
22018;BME280;11173;51.050;7.108;2022-08-23T13:43:45;99460.25;;;28.83;33.41
22018;BME280;11173;51.050;7.108;2022-08-23T13:48:50;99450.66;;;28.81;34.38
22018;BME280;11173;51.050;7.108;2022-08-23T13:53:55;99450.44;;;28.79;33.83
22018;BME280;11173;51.050;7.108;2022-08-23T13:59:00;99445.84;;;28.75;33.73
22018;BME280;11173;51.050;7.108;2022-08-23T14:04:01;99450.56;;;28.73;33.77
22018;BME280;11173;51.050;7.108;2022-08-23T14:09:02;99454.44;;;28.75;33.13
22018;BME280;11173;51.050;7.108;2022-08-23T14:14:05;99441.19;;;28.72;33.49
22018;BME280;11173;51.050;7.108;2022-08-23T14:19:08;99448.91;;;28.78;32.72
22018;BME280;11173;51.050;7.108;2022-08-23T14:24:09;99443.41;;;28.80;33.20
22018;BME280;11173;51.050;7.108;2022-08-23T14:29:09;99447.25;;;28.82;33.06
22018;BME280;11173;51.050;7.108;2022-08-23T14:34:10;99444.72;;;28.79;32.68
22018;BME280;11173;51.050;7.108;2022-08-23T14:39:10;99448.28;;;28.71;32.65
22018;BME280;11173;51.050;7.108;2022-08-23T14:44:11;99444.28;;;28.61;33.16
22018;BME280;11173;51.050;7.108;2022-08-23T14:49:13;99451.34;;;28.60;33.28
22018;BME280;11173;51.050;7.108;2022-08-23T14:54:19;99451.03;;;28.64;32.94
22018;BME280;11173;51.050;7.108;2022-08-23T14:59:20;99451.56;;;28.62;32.74
22018;BME280;11173;51.050;7.108;2022-08-23T15:04:22;99443.84;;;28.57;32.04
22018;BME280;11173;51.050;7.108;2022-08-23T15:09:23;99445.97;;;28.56;32.20
22018;BME280;11173;51.050;7.108;2022-08-23T15:14:23;99455.22;;;28.49;32.42
22018;BME280;11173;51.050;7.108;2022-08-23T15:19:24;99450.28;;;28.50;32.62
22018;BME280;11173;51.050;7.108;2022-08-23T15:24:24;99443.09;;;28.56;32.99
22018;BME280;11173;51.050;7.108;2022-08-23T15:29:26;99441.09;;;28.65;33.02
22018;BME280;11173;51.050;7.108;2022-08-23T15:34:26;99430.81;;;28.83;32.53
22018;BME280;11173;51.050;7.108;2022-08-23T15:39:27;99420.69;;;28.82;31.96
22018;BME280;11173;51.050;7.108;2022-08-23T15:44:27;99429.13;;;28.87;32.00
22018;BME280;11173;51.050;7.108;2022-08-23T15:49:30;99432.38;;;28.84;31.87
22018;BME280;11173;51.050;7.108;2022-08-23T15:54:32;99429.81;;;28.93;31.53
22018;BME280;11173;51.050;7.108;2022-08-23T15:59:35;99428.47;;;28.94;31.48
22018;BME280;11173;51.050;7.108;2022-08-23T16:04:37;99431.34;;;28.94;31.31
22018;BME280;11173;51.050;7.108;2022-08-23T16:09:37;99431.44;;;28.89;31.95
22018;BME280;11173;51.050;7.108;2022-08-23T16:14:38;99426.19;;;28.80;32.11
22018;BME280;11173;51.050;7.108;2022-08-23T16:19:38;99428.84;;;28.78;32.28
22018;BME280;11173;51.050;7.108;2022-08-23T16:24:39;99426.31;;;28.74;32.45
22018;BME280;11173;51.050;7.108;2022-08-23T16:29:39;99419.25;;;28.75;31.79
22018;BME280;11173;51.050;7.108;2022-08-23T16:34:40;99428.88;;;28.64;32.26
22018;BME280;11173;51.050;7.108;2022-08-23T16:39:40;99430.19;;;28.63;32.33
22018;BME280;11173;51.050;7.108;2022-08-23T16:44:43;99426.44;;;28.55;32.40
22018;BME280;11173;51.050;7.108;2022-08-23T16:49:44;99434.59;;;28.51;32.41
22018;BME280;11173;51.050;7.108;2022-08-23T16:54:44;99443.84;;;28.44;32.52
22018;BME280;11173;51.050;7.108;2022-08-23T16:59:44;99443.19;;;28.38;32.67
22018;BME280;11173;51.050;7.108;2022-08-23T17:04:46;99446.81;;;28.25;32.76
22018;BME280;11173;51.050;7.108;2022-08-23T17:09:46;99443.16;;;28.11;32.98
22018;BME280;11173;51.050;7.108;2022-08-23T17:14:49;99437.31;;;28.03;33.25
22018;BME280;11173;51.050;7.108;2022-08-23T17:19:51;99439.84;;;27.93;33.11
22018;BME280;11173;51.050;7.108;2022-08-23T17:24:51;99444.66;;;27.85;33.55
22018;BME280;11173;51.050;7.108;2022-08-23T17:29:51;99460.47;;;27.73;33.51
22018;BME280;11173;51.050;7.108;2022-08-23T17:34:52;99462.19;;;27.63;33.88
22018;BME280;11173;51.050;7.108;2022-08-23T17:39:52;99457.25;;;27.63;33.82
22018;BME280;11173;51.050;7.108;2022-08-23T17:44:53;99469.94;;;27.81;34.00
22018;BME280;11173;51.050;7.108;2022-08-23T17:49:53;99471.72;;;27.84;33.77
22018;BME280;11173;51.050;7.108;2022-08-23T17:54:54;99475.91;;;27.83;33.79
22018;BME280;11173;51.050;7.108;2022-08-23T17:59:55;99479.59;;;27.65;33.72
22018;BME280;11173;51.050;7.108;2022-08-23T18:04:56;99482.81;;;27.42;33.84
22018;BME280;11173;51.050;7.108;2022-08-23T18:09:56;99486.81;;;27.14;34.03
22018;BME280;11173;51.050;7.108;2022-08-23T18:14:57;99498.41;;;26.84;34.61
22018;BME280;11173;51.050;7.108;2022-08-23T18:19:57;99505.38;;;26.64;34.86
22018;BME280;11173;51.050;7.108;2022-08-23T18:24:58;99512.88;;;26.43;34.87
22018;BME280;11173;51.050;7.108;2022-08-23T18:29:58;99517.03;;;26.17;35.04
22018;BME280;11173;51.050;7.108;2022-08-23T18:34:59;99527.84;;;25.94;35.32
22018;BME280;11173;51.050;7.108;2022-08-23T18:39:59;99526.28;;;25.63;35.75
22018;BME280;11173;51.050;7.108;2022-08-23T18:45:00;99529.78;;;25.38;35.73
22018;BME280;11173;51.050;7.108;2022-08-23T18:50:01;99534.81;;;25.15;35.78
22018;BME280;11173;51.050;7.108;2022-08-23T18:55:01;99542.16;;;24.94;36.09
22018;BME280;11173;51.050;7.108;2022-08-23T19:00:03;99544.78;;;24.75;36.74
22018;BME280;11173;51.050;7.108;2022-08-23T19:05:04;99549.25;;;24.53;36.81
22018;BME280;11173;51.050;7.108;2022-08-23T19:10:05;99557.28;;;24.38;37.24
22018;BME280;11173;51.050;7.108;2022-08-23T19:15:06;99567.69;;;24.24;37.51
22018;BME280;11173;51.050;7.108;2022-08-23T19:20:07;99572.28;;;24.16;38.20
22018;BME280;11173;51.050;7.108;2022-08-23T19:25:08;99559.91;;;24.02;37.50
22018;BME280;11173;51.050;7.108;2022-08-23T19:30:09;99579.53;;;23.94;38.09
22018;BME280;11173;51.050;7.108;2022-08-23T19:35:10;99580.78;;;23.82;38.52
22018;BME280;11173;51.050;7.108;2022-08-23T19:40:11;99572.00;;;23.69;39.12
22018;BME280;11173;51.050;7.108;2022-08-23T19:45:14;99573.25;;;23.56;39.06
22018;BME280;11173;51.050;7.108;2022-08-23T19:50:15;99581.50;;;23.49;39.20
22018;BME280;11173;51.050;7.108;2022-08-23T19:55:15;99579.13;;;23.36;39.57
22018;BME280;11173;51.050;7.108;2022-08-23T20:05:28;99593.06;;;23.28;40.31
22018;BME280;11173;51.050;7.108;2022-08-23T20:10:28;99592.50;;;23.24;40.75
22018;BME280;11173;51.050;7.108;2022-08-23T20:15:28;99595.34;;;23.18;40.48
22018;BME280;11173;51.050;7.108;2022-08-23T20:20:29;99598.66;;;23.11;40.46
22018;BME280;11173;51.050;7.108;2022-08-23T20:25:29;99602.53;;;23.08;40.51
22018;BME280;11173;51.050;7.108;2022-08-23T20:30:30;99608.69;;;23.01;40.77
22018;BME280;11173;51.050;7.108;2022-08-23T20:35:31;99605.31;;;22.97;41.00
22018;BME280;11173;51.050;7.108;2022-08-23T20:40:31;99611.44;;;22.90;40.91
22018;BME280;11173;51.050;7.108;2022-08-23T20:45:31;99603.94;;;22.87;41.01
22018;BME280;11173;51.050;7.108;2022-08-23T20:50:32;99605.97;;;22.80;41.59
22018;BME280;11173;51.050;7.108;2022-08-23T20:55:32;99608.47;;;22.67;41.58
22018;BME280;11173;51.050;7.108;2022-08-23T21:00:33;99606.31;;;22.51;41.68
22018;BME280;11173;51.050;7.108;2022-08-23T21:05:33;99605.94;;;22.37;42.37
22018;BME280;11173;51.050;7.108;2022-08-23T21:10:34;99612.84;;;22.31;42.42
22018;BME280;11173;51.050;7.108;2022-08-23T21:15:35;99616.69;;;22.28;42.56
22018;BME280;11173;51.050;7.108;2022-08-23T21:20:36;99614.34;;;22.26;42.79
22018;BME280;11173;51.050;7.108;2022-08-23T21:25:36;99613.09;;;22.27;42.37
22018;BME280;11173;51.050;7.108;2022-08-23T21:30:36;99620.47;;;22.19;43.04
22018;BME280;11173;51.050;7.108;2022-08-23T21:35:37;99622.66;;;22.03;43.43
22018;BME280;11173;51.050;7.108;2022-08-23T21:40:37;99622.25;;;21.90;43.61
22018;BME280;11173;51.050;7.108;2022-08-23T21:45:38;99623.13;;;21.76;44.14
22018;BME280;11173;51.050;7.108;2022-08-23T21:50:38;99616.63;;;21.70;44.53
22018;BME280;11173;51.050;7.108;2022-08-23T21:55:40;99623.03;;;21.64;44.53
22018;BME280;11173;51.050;7.108;2022-08-23T22:00:41;99622.19;;;21.58;44.54
22018;BME280;11173;51.050;7.108;2022-08-23T22:05:43;99610.00;;;21.52;44.30
22018;BME280;11173;51.050;7.108;2022-08-23T22:10:44;99623.00;;;21.44;45.52
22018;BME280;11173;51.050;7.108;2022-08-23T22:15:44;99621.19;;;21.41;44.06
22018;BME280;11173;51.050;7.108;2022-08-23T22:20:45;99619.81;;;21.36;44.54
22018;BME280;11173;51.050;7.108;2022-08-23T22:25:45;99618.78;;;21.34;44.54
22018;BME280;11173;51.050;7.108;2022-08-23T22:30:47;99624.66;;;21.30;44.63
22018;BME280;11173;51.050;7.108;2022-08-23T22:35:47;99623.59;;;21.28;44.89
22018;BME280;11173;51.050;7.108;2022-08-23T22:40:49;99630.31;;;21.30;45.54
22018;BME280;11173;51.050;7.108;2022-08-23T22:45:55;99628.28;;;21.31;44.88
22018;BME280;11173;51.050;7.108;2022-08-23T22:51:24;99625.22;;;21.34;45.01
22018;BME280;11173;51.050;7.108;2022-08-23T22:56:31;99621.88;;;21.36;44.26
22018;BME280;11173;51.050;7.108;2022-08-23T23:01:38;99631.16;;;21.36;44.12
22018;BME280;11173;51.050;7.108;2022-08-23T23:06:39;99625.00;;;21.38;44.55
22018;BME280;11173;51.050;7.108;2022-08-23T23:11:42;99620.91;;;21.39;44.11
22018;BME280;11173;51.050;7.108;2022-08-23T23:16:43;99620.09;;;21.38;43.66
22018;BME280;11173;51.050;7.108;2022-08-23T23:21:48;99622.94;;;21.38;44.25
22018;BME280;11173;51.050;7.108;2022-08-23T23:26:49;99623.75;;;21.39;44.22
22018;BME280;11173;51.050;7.108;2022-08-23T23:31:50;99629.41;;;21.39;43.81
22018;BME280;11173;51.050;7.108;2022-08-23T23:36:55;99626.56;;;21.39;43.89
22018;BME280;11173;51.050;7.108;2022-08-23T23:41:56;99627.84;;;21.38;43.41
22018;BME280;11173;51.050;7.108;2022-08-23T23:46:56;99621.19;;;21.41;43.62
22018;BME280;11173;51.050;7.108;2022-08-23T23:51:57;99622.31;;;21.49;43.83
22018;BME280;11173;51.050;7.108;2022-08-23T23:56:57;99620.75;;;21.48;45.78
